sensor_id;sensor_type;location;lat;lon;timestamp;P1;durP1;ratioP1;P2;durP2;ratioP2
10226;SDS011;15634;48.766;2.272;2022-08-19T00:01:18;9.35;;;7.35;;
10226;SDS011;15634;48.766;2.272;2022-08-19T00:03:44;10.65;;;7.60;;
10226;SDS011;15634;48.766;2.272;2022-08-19T00:06:11;10.32;;;7.68;;
10226;SDS011;15634;48.766;2.272;2022-08-19T00:08:39;11.48;;;7.40;;
10226;SDS011;15634;48.766;2.272;2022-08-19T00:11:06;11.02;;;7.55;;
10226;SDS011;15634;48.766;2.272;2022-08-19T00:13:33;11.55;;;7.47;;
10226;SDS011;15634;48.766;2.272;2022-08-19T00:16:00;11.68;;;7.45;;
10226;SDS011;15634;48.766;2.272;2022-08-19T00:18:26;12.52;;;8.02;;
10226;SDS011;15634;48.766;2.272;2022-08-19T00:20:53;13.38;;;8.35;;
10226;SDS011;15634;48.766;2.272;2022-08-19T00:23:20;10.20;;;7.03;;
10226;SDS011;15634;48.766;2.272;2022-08-19T00:25:48;11.23;;;7.18;;
10226;SDS011;15634;48.766;2.272;2022-08-19T00:28:15;11.82;;;7.28;;
10226;SDS011;15634;48.766;2.272;2022-08-19T00:30:41;14.45;;;7.50;;
10226;SDS011;15634;48.766;2.272;2022-08-19T00:33:08;10.98;;;7.65;;
10226;SDS011;15634;48.766;2.272;2022-08-19T00:35:35;10.65;;;7.60;;
10226;SDS011;15634;48.766;2.272;2022-08-19T00:38:03;11.55;;;7.43;;
10226;SDS011;15634;48.766;2.272;2022-08-19T00:40:31;11.70;;;7.28;;
10226;SDS011;15634;48.766;2.272;2022-08-19T00:42:59;11.18;;;7.53;;
10226;SDS011;15634;48.766;2.272;2022-08-19T00:45:27;9.52;;;7.18;;
10226;SDS011;15634;48.766;2.272;2022-08-19T00:47:56;12.98;;;7.70;;
10226;SDS011;15634;48.766;2.272;2022-08-19T00:50:23;10.43;;;7.03;;
10226;SDS011;15634;48.766;2.272;2022-08-19T00:52:50;10.57;;;7.32;;
10226;SDS011;15634;48.766;2.272;2022-08-19T00:55:19;12.68;;;7.07;;
10226;SDS011;15634;48.766;2.272;2022-08-19T00:57:48;10.45;;;7.30;;
10226;SDS011;15634;48.766;2.272;2022-08-19T01:00:21;10.77;;;7.32;;
10226;SDS011;15634;48.766;2.272;2022-08-19T01:02:50;8.48;;;6.80;;
10226;SDS011;15634;48.766;2.272;2022-08-19T01:05:20;10.68;;;7.30;;
10226;SDS011;15634;48.766;2.272;2022-08-19T01:07:48;10.23;;;7.45;;
10226;SDS011;15634;48.766;2.272;2022-08-19T01:10:17;9.90;;;7.32;;
10226;SDS011;15634;48.766;2.272;2022-08-19T01:12:45;12.75;;;7.03;;
10226;SDS011;15634;48.766;2.272;2022-08-19T01:15:14;9.95;;;6.97;;
10226;SDS011;15634;48.766;2.272;2022-08-19T01:17:44;10.95;;;7.13;;
10226;SDS011;15634;48.766;2.272;2022-08-19T01:20:12;9.80;;;6.53;;
10226;SDS011;15634;48.766;2.272;2022-08-19T01:22:43;12.60;;;8.02;;
10226;SDS011;15634;48.766;2.272;2022-08-19T01:25:11;12.82;;;6.88;;
10226;SDS011;15634;48.766;2.272;2022-08-19T01:27:39;10.98;;;7.70;;
10226;SDS011;15634;48.766;2.272;2022-08-19T01:30:07;10.98;;;7.47;;
10226;SDS011;15634;48.766;2.272;2022-08-19T01:32:34;9.95;;;6.85;;
10226;SDS011;15634;48.766;2.272;2022-08-19T01:35:02;14.27;;;7.45;;
10226;SDS011;15634;48.766;2.272;2022-08-19T01:37:40;11.35;;;7.30;;
10226;SDS011;15634;48.766;2.272;2022-08-19T01:40:10;9.23;;;7.47;;
10226;SDS011;15634;48.766;2.272;2022-08-19T01:42:36;13.20;;;7.75;;
10226;SDS011;15634;48.766;2.272;2022-08-19T01:45:03;9.85;;;7.25;;
10226;SDS011;15634;48.766;2.272;2022-08-19T01:47:30;11.07;;;7.13;;
10226;SDS011;15634;48.766;2.272;2022-08-19T01:49:57;13.50;;;7.60;;
10226;SDS011;15634;48.766;2.272;2022-08-19T01:52:24;12.75;;;7.72;;
10226;SDS011;15634;48.766;2.272;2022-08-19T01:54:53;14.25;;;7.97;;
10226;SDS011;15634;48.766;2.272;2022-08-19T01:57:20;10.05;;;7.63;;
10226;SDS011;15634;48.766;2.272;2022-08-19T01:59:46;11.82;;;8.00;;
10226;SDS011;15634;48.766;2.272;2022-08-19T02:02:14;16.77;;;8.27;;
10226;SDS011;15634;48.766;2.272;2022-08-19T02:04:41;12.98;;;7.63;;
10226;SDS011;15634;48.766;2.272;2022-08-19T02:07:07;12.80;;;8.15;;
10226;SDS011;15634;48.766;2.272;2022-08-19T02:09:34;13.60;;;8.07;;
10226;SDS011;15634;48.766;2.272;2022-08-19T02:12:03;10.63;;;7.82;;
10226;SDS011;15634;48.766;2.272;2022-08-19T02:14:29;11.80;;;7.30;;
10226;SDS011;15634;48.766;2.272;2022-08-19T02:16:56;13.13;;;8.70;;
10226;SDS011;15634;48.766;2.272;2022-08-19T02:19:23;12.73;;;8.57;;
10226;SDS011;15634;48.766;2.272;2022-08-19T02:21:49;14.98;;;8.45;;
10226;SDS011;15634;48.766;2.272;2022-08-19T02:24:16;14.50;;;8.88;;
10226;SDS011;15634;48.766;2.272;2022-08-19T02:26:42;11.68;;;8.18;;
10226;SDS011;15634;48.766;2.272;2022-08-19T02:29:10;11.93;;;8.10;;
10226;SDS011;15634;48.766;2.272;2022-08-19T02:31:37;15.93;;;9.35;;
10226;SDS011;15634;48.766;2.272;2022-08-19T02:34:04;12.88;;;8.30;;
10226;SDS011;15634;48.766;2.272;2022-08-19T02:36:30;12.45;;;8.40;;
10226;SDS011;15634;48.766;2.272;2022-08-19T02:38:57;14.82;;;9.10;;
10226;SDS011;15634;48.766;2.272;2022-08-19T02:41:23;13.07;;;8.73;;
10226;SDS011;15634;48.766;2.272;2022-08-19T02:43:51;14.95;;;8.55;;
10226;SDS011;15634;48.766;2.272;2022-08-19T02:46:20;11.85;;;8.88;;
10226;SDS011;15634;48.766;2.272;2022-08-19T02:48:49;15.25;;;9.93;;
10226;SDS011;15634;48.766;2.272;2022-08-19T02:51:17;13.90;;;9.10;;
10226;SDS011;15634;48.766;2.272;2022-08-19T02:53:45;15.82;;;9.48;;
10226;SDS011;15634;48.766;2.272;2022-08-19T02:56:11;12.63;;;9.18;;
10226;SDS011;15634;48.766;2.272;2022-08-19T02:58:38;14.65;;;8.90;;
10226;SDS011;15634;48.766;2.272;2022-08-19T03:01:05;14.65;;;8.98;;
10226;SDS011;15634;48.766;2.272;2022-08-19T03:03:33;14.27;;;8.90;;
10226;SDS011;15634;48.766;2.272;2022-08-19T03:06:07;16.42;;;10.02;;
10226;SDS011;15634;48.766;2.272;2022-08-19T03:08:35;16.63;;;9.70;;
10226;SDS011;15634;48.766;2.272;2022-08-19T03:11:02;14.85;;;10.00;;
10226;SDS011;15634;48.766;2.272;2022-08-19T03:13:29;15.40;;;10.32;;
10226;SDS011;15634;48.766;2.272;2022-08-19T03:15:55;13.88;;;9.93;;
10226;SDS011;15634;48.766;2.272;2022-08-19T03:18:22;12.88;;;9.27;;
10226;SDS011;15634;48.766;2.272;2022-08-19T03:20:51;17.17;;;9.60;;
10226;SDS011;15634;48.766;2.272;2022-08-19T03:23:19;17.45;;;9.73;;
10226;SDS011;15634;48.766;2.272;2022-08-19T03:25:47;14.82;;;9.68;;
10226;SDS011;15634;48.766;2.272;2022-08-19T03:28:15;15.35;;;8.93;;
10226;SDS011;15634;48.766;2.272;2022-08-19T03:30:43;12.23;;;8.65;;
10226;SDS011;15634;48.766;2.272;2022-08-19T03:33:22;15.35;;;8.30;;
10226;SDS011;15634;48.766;2.272;2022-08-19T03:36:00;15.48;;;8.00;;
10226;SDS011;15634;48.766;2.272;2022-08-19T03:38:32;14.23;;;8.60;;
10226;SDS011;15634;48.766;2.272;2022-08-19T03:41:01;14.15;;;8.60;;
10226;SDS011;15634;48.766;2.272;2022-08-19T03:43:28;11.40;;;8.20;;
10226;SDS011;15634;48.766;2.272;2022-08-19T03:46:02;14.05;;;7.95;;
10226;SDS011;15634;48.766;2.272;2022-08-19T03:48:30;17.83;;;9.02;;
10226;SDS011;15634;48.766;2.272;2022-08-19T03:50:57;13.13;;;8.95;;
10226;SDS011;15634;48.766;2.272;2022-08-19T03:53:27;16.05;;;8.40;;
10226;SDS011;15634;48.766;2.272;2022-08-19T03:55:55;14.23;;;7.95;;
10226;SDS011;15634;48.766;2.272;2022-08-19T03:58:22;11.45;;;7.53;;
10226;SDS011;15634;48.766;2.272;2022-08-19T04:00:49;13.23;;;7.85;;
10226;SDS011;15634;48.766;2.272;2022-08-19T04:03:16;10.85;;;6.88;;
10226;SDS011;15634;48.766;2.272;2022-08-19T04:05:44;10.05;;;6.32;;
10226;SDS011;15634;48.766;2.272;2022-08-19T04:08:15;9.38;;;6.35;;
10226;SDS011;15634;48.766;2.272;2022-08-19T04:10:46;9.02;;;5.95;;
10226;SDS011;15634;48.766;2.272;2022-08-19T04:13:12;7.68;;;5.43;;
10226;SDS011;15634;48.766;2.272;2022-08-19T04:15:40;9.73;;;5.93;;
10226;SDS011;15634;48.766;2.272;2022-08-19T04:18:07;9.18;;;5.72;;
10226;SDS011;15634;48.766;2.272;2022-08-19T04:20:38;9.48;;;5.22;;
10226;SDS011;15634;48.766;2.272;2022-08-19T04:23:06;8.73;;;5.20;;
10226;SDS011;15634;48.766;2.272;2022-08-19T04:25:36;8.98;;;5.30;;
10226;SDS011;15634;48.766;2.272;2022-08-19T04:28:04;7.57;;;5.03;;
10226;SDS011;15634;48.766;2.272;2022-08-19T04:30:30;10.77;;;5.50;;
10226;SDS011;15634;48.766;2.272;2022-08-19T04:32:57;10.30;;;4.80;;
10226;SDS011;15634;48.766;2.272;2022-08-19T04:35:24;6.65;;;5.00;;
10226;SDS011;15634;48.766;2.272;2022-08-19T04:37:50;7.13;;;4.70;;
10226;SDS011;15634;48.766;2.272;2022-08-19T04:40:17;8.60;;;4.60;;
10226;SDS011;15634;48.766;2.272;2022-08-19T04:43:03;6.72;;;4.95;;
10226;SDS011;15634;48.766;2.272;2022-08-19T04:45:29;8.50;;;4.50;;
10226;SDS011;15634;48.766;2.272;2022-08-19T04:47:56;6.43;;;4.75;;
10226;SDS011;15634;48.766;2.272;2022-08-19T04:50:23;6.45;;;4.57;;
10226;SDS011;15634;48.766;2.272;2022-08-19T04:52:50;7.00;;;4.30;;
10226;SDS011;15634;48.766;2.272;2022-08-19T04:55:17;7.80;;;4.85;;
10226;SDS011;15634;48.766;2.272;2022-08-19T04:57:44;8.45;;;5.00;;
10226;SDS011;15634;48.766;2.272;2022-08-19T05:00:12;8.57;;;5.13;;
10226;SDS011;15634;48.766;2.272;2022-08-19T05:02:39;7.20;;;5.07;;
10226;SDS011;15634;48.766;2.272;2022-08-19T05:05:07;7.38;;;4.80;;
10226;SDS011;15634;48.766;2.272;2022-08-19T05:07:34;6.07;;;4.60;;
10226;SDS011;15634;48.766;2.272;2022-08-19T05:10:05;6.93;;;4.88;;
10226;SDS011;15634;48.766;2.272;2022-08-19T05:12:33;7.72;;;4.60;;
10226;SDS011;15634;48.766;2.272;2022-08-19T05:15:04;9.30;;;4.90;;
10226;SDS011;15634;48.766;2.272;2022-08-19T05:17:34;6.38;;;4.63;;
10226;SDS011;15634;48.766;2.272;2022-08-19T05:20:01;6.82;;;4.55;;
10226;SDS011;15634;48.766;2.272;2022-08-19T05:22:46;6.95;;;4.40;;
10226;SDS011;15634;48.766;2.272;2022-08-19T05:25:15;6.43;;;4.80;;
10226;SDS011;15634;48.766;2.272;2022-08-19T05:27:43;6.75;;;4.47;;
10226;SDS011;15634;48.766;2.272;2022-08-19T05:30:10;10.85;;;4.95;;
10226;SDS011;15634;48.766;2.272;2022-08-19T05:32:39;6.53;;;4.00;;
10226;SDS011;15634;48.766;2.272;2022-08-19T05:35:06;8.43;;;4.43;;
10226;SDS011;15634;48.766;2.272;2022-08-19T05:37:34;7.20;;;3.95;;
10226;SDS011;15634;48.766;2.272;2022-08-19T05:40:01;6.15;;;4.15;;
10226;SDS011;15634;48.766;2.272;2022-08-19T05:42:28;6.25;;;4.05;;
10226;SDS011;15634;48.766;2.272;2022-08-19T05:44:55;7.25;;;4.20;;
10226;SDS011;15634;48.766;2.272;2022-08-19T05:47:22;7.28;;;3.70;;
10226;SDS011;15634;48.766;2.272;2022-08-19T05:49:50;6.03;;;3.75;;
10226;SDS011;15634;48.766;2.272;2022-08-19T05:52:17;5.22;;;3.58;;
10226;SDS011;15634;48.766;2.272;2022-08-19T05:54:44;7.25;;;4.38;;
10226;SDS011;15634;48.766;2.272;2022-08-19T05:57:13;8.43;;;4.22;;
10226;SDS011;15634;48.766;2.272;2022-08-19T05:59:40;5.40;;;3.88;;
10226;SDS011;15634;48.766;2.272;2022-08-19T06:02:07;9.30;;;4.70;;
10226;SDS011;15634;48.766;2.272;2022-08-19T06:04:33;5.82;;;3.90;;
10226;SDS011;15634;48.766;2.272;2022-08-19T06:07:01;6.60;;;4.10;;
10226;SDS011;15634;48.766;2.272;2022-08-19T06:09:28;6.35;;;3.95;;
10226;SDS011;15634;48.766;2.272;2022-08-19T06:11:56;7.38;;;3.70;;
10226;SDS011;15634;48.766;2.272;2022-08-19T06:14:26;6.30;;;3.55;;
10226;SDS011;15634;48.766;2.272;2022-08-19T06:16:54;5.05;;;3.42;;
10226;SDS011;15634;48.766;2.272;2022-08-19T06:19:21;4.47;;;3.28;;
10226;SDS011;15634;48.766;2.272;2022-08-19T06:21:50;7.55;;;4.88;;
10226;SDS011;15634;48.766;2.272;2022-08-19T06:24:20;4.45;;;2.80;;
10226;SDS011;15634;48.766;2.272;2022-08-19T06:26:49;5.03;;;3.13;;
10226;SDS011;15634;48.766;2.272;2022-08-19T06:29:18;5.53;;;3.50;;
10226;SDS011;15634;48.766;2.272;2022-08-19T06:31:47;3.65;;;2.53;;
10226;SDS011;15634;48.766;2.272;2022-08-19T06:34:15;6.05;;;2.95;;
10226;SDS011;15634;48.766;2.272;2022-08-19T06:36:43;4.93;;;2.63;;
10226;SDS011;15634;48.766;2.272;2022-08-19T06:39:13;5.68;;;2.70;;
10226;SDS011;15634;48.766;2.272;2022-08-19T06:41:43;3.75;;;2.50;;
10226;SDS011;15634;48.766;2.272;2022-08-19T06:44:11;5.82;;;2.90;;
10226;SDS011;15634;48.766;2.272;2022-08-19T06:46:38;5.18;;;2.80;;
10226;SDS011;15634;48.766;2.272;2022-08-19T06:49:06;4.50;;;2.78;;
10226;SDS011;15634;48.766;2.272;2022-08-19T06:51:36;4.30;;;2.63;;
10226;SDS011;15634;48.766;2.272;2022-08-19T06:54:04;3.40;;;2.72;;
10226;SDS011;15634;48.766;2.272;2022-08-19T06:56:31;6.03;;;2.75;;
10226;SDS011;15634;48.766;2.272;2022-08-19T06:59:01;5.40;;;2.60;;
10226;SDS011;15634;48.766;2.272;2022-08-19T07:01:29;11.00;;;5.88;;
10226;SDS011;15634;48.766;2.272;2022-08-19T07:03:56;7.13;;;3.17;;
10226;SDS011;15634;48.766;2.272;2022-08-19T07:06:23;6.25;;;3.47;;
10226;SDS011;15634;48.766;2.272;2022-08-19T07:08:49;5.50;;;3.65;;
10226;SDS011;15634;48.766;2.272;2022-08-19T07:11:16;7.00;;;3.40;;
10226;SDS011;15634;48.766;2.272;2022-08-19T07:13:44;7.28;;;3.50;;
10226;SDS011;15634;48.766;2.272;2022-08-19T07:16:14;7.60;;;3.00;;
10226;SDS011;15634;48.766;2.272;2022-08-19T07:18:42;5.20;;;2.70;;
10226;SDS011;15634;48.766;2.272;2022-08-19T07:21:10;9.10;;;4.50;;
10226;SDS011;15634;48.766;2.272;2022-08-19T07:23:38;5.20;;;3.42;;
10226;SDS011;15634;48.766;2.272;2022-08-19T07:26:05;5.97;;;3.88;;
10226;SDS011;15634;48.766;2.272;2022-08-19T07:28:32;12.25;;;6.57;;
10226;SDS011;15634;48.766;2.272;2022-08-19T07:30:59;9.48;;;4.15;;
10226;SDS011;15634;48.766;2.272;2022-08-19T07:33:29;6.20;;;3.80;;
10226;SDS011;15634;48.766;2.272;2022-08-19T07:35:57;4.35;;;2.95;;
10226;SDS011;15634;48.766;2.272;2022-08-19T07:38:24;4.55;;;2.95;;
10226;SDS011;15634;48.766;2.272;2022-08-19T07:40:51;7.20;;;2.97;;
10226;SDS011;15634;48.766;2.272;2022-08-19T07:43:19;3.70;;;2.50;;
10226;SDS011;15634;48.766;2.272;2022-08-19T07:45:48;8.00;;;3.40;;
10226;SDS011;15634;48.766;2.272;2022-08-19T07:48:14;4.30;;;2.70;;
10226;SDS011;15634;48.766;2.272;2022-08-19T07:50:42;4.88;;;2.90;;
10226;SDS011;15634;48.766;2.272;2022-08-19T07:53:09;5.80;;;2.83;;
10226;SDS011;15634;48.766;2.272;2022-08-19T07:55:36;7.43;;;3.47;;
10226;SDS011;15634;48.766;2.272;2022-08-19T07:58:03;5.72;;;2.80;;
10226;SDS011;15634;48.766;2.272;2022-08-19T08:00:30;6.57;;;2.88;;
10226;SDS011;15634;48.766;2.272;2022-08-19T08:02:57;5.00;;;3.03;;
10226;SDS011;15634;48.766;2.272;2022-08-19T08:05:24;4.45;;;2.50;;
10226;SDS011;15634;48.766;2.272;2022-08-19T08:08:10;5.25;;;2.63;;
10226;SDS011;15634;48.766;2.272;2022-08-19T08:11:02;3.40;;;2.35;;
10226;SDS011;15634;48.766;2.272;2022-08-19T08:13:29;4.65;;;2.80;;
10226;SDS011;15634;48.766;2.272;2022-08-19T08:15:56;9.38;;;2.70;;
10226;SDS011;15634;48.766;2.272;2022-08-19T08:18:22;5.35;;;2.80;;
10226;SDS011;15634;48.766;2.272;2022-08-19T08:20:49;5.13;;;2.38;;
10226;SDS011;15634;48.766;2.272;2022-08-19T08:23:17;5.65;;;2.47;;
10226;SDS011;15634;48.766;2.272;2022-08-19T08:25:51;5.72;;;2.40;;
10226;SDS011;15634;48.766;2.272;2022-08-19T08:28:19;4.47;;;2.50;;
10226;SDS011;15634;48.766;2.272;2022-08-19T08:30:46;4.32;;;2.30;;
10226;SDS011;15634;48.766;2.272;2022-08-19T08:33:14;4.38;;;2.40;;
10226;SDS011;15634;48.766;2.272;2022-08-19T08:35:44;3.50;;;2.40;;
10226;SDS011;15634;48.766;2.272;2022-08-19T08:38:11;3.30;;;2.30;;
10226;SDS011;15634;48.766;2.272;2022-08-19T08:40:42;4.35;;;2.40;;
10226;SDS011;15634;48.766;2.272;2022-08-19T08:43:13;3.97;;;2.63;;
10226;SDS011;15634;48.766;2.272;2022-08-19T08:45:47;7.00;;;2.50;;
10226;SDS011;15634;48.766;2.272;2022-08-19T08:48:18;4.65;;;2.40;;
10226;SDS011;15634;48.766;2.272;2022-08-19T08:50:47;3.67;;;2.30;;
10226;SDS011;15634;48.766;2.272;2022-08-19T08:53:17;6.20;;;2.85;;
10226;SDS011;15634;48.766;2.272;2022-08-19T08:55:45;5.93;;;2.92;;
10226;SDS011;15634;48.766;2.272;2022-08-19T08:58:13;4.82;;;3.00;;
10226;SDS011;15634;48.766;2.272;2022-08-19T09:00:43;3.50;;;2.47;;
10226;SDS011;15634;48.766;2.272;2022-08-19T09:03:18;4.00;;;2.55;;
10226;SDS011;15634;48.766;2.272;2022-08-19T09:05:49;6.00;;;2.78;;
10226;SDS011;15634;48.766;2.272;2022-08-19T09:08:22;4.72;;;2.65;;
10226;SDS011;15634;48.766;2.272;2022-08-19T09:10:57;3.92;;;2.50;;
10226;SDS011;15634;48.766;2.272;2022-08-19T09:13:26;6.32;;;2.63;;
10226;SDS011;15634;48.766;2.272;2022-08-19T09:15:58;3.17;;;2.38;;
10226;SDS011;15634;48.766;2.272;2022-08-19T09:18:38;6.93;;;2.80;;
10226;SDS011;15634;48.766;2.272;2022-08-19T09:21:05;5.63;;;2.45;;
10226;SDS011;15634;48.766;2.272;2022-08-19T09:23:32;4.75;;;2.75;;
10226;SDS011;15634;48.766;2.272;2022-08-19T09:26:00;5.68;;;2.78;;
10226;SDS011;15634;48.766;2.272;2022-08-19T09:28:27;10.93;;;4.43;;
10226;SDS011;15634;48.766;2.272;2022-08-19T09:30:54;5.20;;;2.50;;
10226;SDS011;15634;48.766;2.272;2022-08-19T09:33:21;3.58;;;2.40;;
10226;SDS011;15634;48.766;2.272;2022-08-19T09:35:48;5.68;;;2.28;;
10226;SDS011;15634;48.766;2.272;2022-08-19T09:38:14;6.63;;;2.47;;
10226;SDS011;15634;48.766;2.272;2022-08-19T09:40:41;3.80;;;2.40;;
10226;SDS011;15634;48.766;2.272;2022-08-19T09:43:09;3.75;;;2.53;;
10226;SDS011;15634;48.766;2.272;2022-08-19T09:45:36;4.63;;;2.45;;
10226;SDS011;15634;48.766;2.272;2022-08-19T09:48:02;4.35;;;2.25;;
10226;SDS011;15634;48.766;2.272;2022-08-19T09:50:31;3.38;;;2.50;;
10226;SDS011;15634;48.766;2.272;2022-08-19T09:53:00;4.07;;;2.83;;
10226;SDS011;15634;48.766;2.272;2022-08-19T09:55:27;4.28;;;2.15;;
10226;SDS011;15634;48.766;2.272;2022-08-19T09:57:53;4.25;;;2.33;;
10226;SDS011;15634;48.766;2.272;2022-08-19T10:00:21;3.50;;;2.22;;
10226;SDS011;15634;48.766;2.272;2022-08-19T10:02:48;3.47;;;2.17;;
10226;SDS011;15634;48.766;2.272;2022-08-19T10:05:15;2.90;;;2.05;;
10226;SDS011;15634;48.766;2.272;2022-08-19T10:07:59;3.45;;;2.00;;
10226;SDS011;15634;48.766;2.272;2022-08-19T10:10:26;2.75;;;1.90;;
10226;SDS011;15634;48.766;2.272;2022-08-19T10:12:53;4.95;;;2.30;;
10226;SDS011;15634;48.766;2.272;2022-08-19T10:15:22;6.60;;;3.95;;
10226;SDS011;15634;48.766;2.272;2022-08-19T10:17:48;2.65;;;1.80;;
10226;SDS011;15634;48.766;2.272;2022-08-19T10:20:15;4.18;;;1.73;;
10226;SDS011;15634;48.766;2.272;2022-08-19T10:22:42;4.60;;;2.15;;
10226;SDS011;15634;48.766;2.272;2022-08-19T10:25:09;2.90;;;1.80;;
10226;SDS011;15634;48.766;2.272;2022-08-19T10:27:36;4.60;;;1.80;;
10226;SDS011;15634;48.766;2.272;2022-08-19T10:30:03;4.13;;;1.83;;
10226;SDS011;15634;48.766;2.272;2022-08-19T10:32:32;3.10;;;1.75;;
10226;SDS011;15634;48.766;2.272;2022-08-19T10:34:59;2.10;;;1.90;;
10226;SDS011;15634;48.766;2.272;2022-08-19T10:37:26;4.05;;;1.67;;
10226;SDS011;15634;48.766;2.272;2022-08-19T10:39:53;2.25;;;1.38;;
10226;SDS011;15634;48.766;2.272;2022-08-19T10:42:19;3.70;;;1.88;;
10226;SDS011;15634;48.766;2.272;2022-08-19T10:44:46;2.65;;;1.75;;
10226;SDS011;15634;48.766;2.272;2022-08-19T10:47:13;3.65;;;1.77;;
10226;SDS011;15634;48.766;2.272;2022-08-19T10:49:41;2.97;;;2.00;;
10226;SDS011;15634;48.766;2.272;2022-08-19T10:52:21;3.67;;;1.80;;
10226;SDS011;15634;48.766;2.272;2022-08-19T10:55:00;2.55;;;1.90;;
10226;SDS011;15634;48.766;2.272;2022-08-19T10:57:44;4.03;;;2.00;;
10226;SDS011;15634;48.766;2.272;2022-08-19T11:00:11;2.58;;;2.08;;
10226;SDS011;15634;48.766;2.272;2022-08-19T11:02:39;5.88;;;2.20;;
10226;SDS011;15634;48.766;2.272;2022-08-19T11:05:09;4.35;;;2.50;;
10226;SDS011;15634;48.766;2.272;2022-08-19T11:07:37;4.15;;;2.30;;
10226;SDS011;15634;48.766;2.272;2022-08-19T11:10:04;3.88;;;2.15;;
10226;SDS011;15634;48.766;2.272;2022-08-19T11:12:31;2.28;;;1.80;;
10226;SDS011;15634;48.766;2.272;2022-08-19T11:14:58;2.83;;;2.10;;
10226;SDS011;15634;48.766;2.272;2022-08-19T11:17:25;3.25;;;2.03;;
10226;SDS011;15634;48.766;2.272;2022-08-19T11:19:51;3.60;;;2.20;;
10226;SDS011;15634;48.766;2.272;2022-08-19T11:22:19;2.83;;;1.80;;
10226;SDS011;15634;48.766;2.272;2022-08-19T11:24:46;2.47;;;2.08;;
10226;SDS011;15634;48.766;2.272;2022-08-19T11:27:13;2.83;;;1.75;;
10226;SDS011;15634;48.766;2.272;2022-08-19T11:29:39;3.40;;;2.10;;
10226;SDS011;15634;48.766;2.272;2022-08-19T11:32:07;3.55;;;2.17;;
10226;SDS011;15634;48.766;2.272;2022-08-19T11:34:35;3.60;;;2.10;;
10226;SDS011;15634;48.766;2.272;2022-08-19T11:37:02;3.22;;;2.22;;
10226;SDS011;15634;48.766;2.272;2022-08-19T11:39:32;2.28;;;2.00;;
10226;SDS011;15634;48.766;2.272;2022-08-19T11:42:00;2.30;;;2.05;;
10226;SDS011;15634;48.766;2.272;2022-08-19T11:44:27;5.72;;;2.72;;
10226;SDS011;15634;48.766;2.272;2022-08-19T11:46:55;2.97;;;2.22;;
10226;SDS011;15634;48.766;2.272;2022-08-19T11:49:22;3.65;;;2.63;;
10226;SDS011;15634;48.766;2.272;2022-08-19T11:51:49;3.80;;;2.30;;
10226;SDS011;15634;48.766;2.272;2022-08-19T11:54:16;2.25;;;1.90;;
10226;SDS011;15634;48.766;2.272;2022-08-19T11:56:44;4.90;;;2.47;;
10226;SDS011;15634;48.766;2.272;2022-08-19T11:59:12;4.38;;;2.28;;
10226;SDS011;15634;48.766;2.272;2022-08-19T12:01:39;3.42;;;2.30;;
10226;SDS011;15634;48.766;2.272;2022-08-19T12:04:07;3.65;;;2.10;;
10226;SDS011;15634;48.766;2.272;2022-08-19T12:06:34;5.35;;;2.00;;
10226;SDS011;15634;48.766;2.272;2022-08-19T12:09:05;6.45;;;2.35;;
10226;SDS011;15634;48.766;2.272;2022-08-19T12:11:33;4.60;;;2.20;;
10226;SDS011;15634;48.766;2.272;2022-08-19T12:14:01;3.83;;;2.10;;
10226;SDS011;15634;48.766;2.272;2022-08-19T12:16:28;4.15;;;1.90;;
10226;SDS011;15634;48.766;2.272;2022-08-19T12:18:57;3.35;;;2.00;;
10226;SDS011;15634;48.766;2.272;2022-08-19T12:21:28;3.03;;;1.70;;
10226;SDS011;15634;48.766;2.272;2022-08-19T12:23:56;2.10;;;1.77;;
10226;SDS011;15634;48.766;2.272;2022-08-19T12:26:24;2.95;;;2.20;;
10226;SDS011;15634;48.766;2.272;2022-08-19T12:28:52;4.35;;;2.00;;
10226;SDS011;15634;48.766;2.272;2022-08-19T12:31:20;2.72;;;1.83;;
10226;SDS011;15634;48.766;2.272;2022-08-19T12:33:47;2.70;;;1.85;;
10226;SDS011;15634;48.766;2.272;2022-08-19T12:36:14;3.22;;;1.88;;
10226;SDS011;15634;48.766;2.272;2022-08-19T12:38:42;3.75;;;2.88;;
10226;SDS011;15634;48.766;2.272;2022-08-19T12:41:10;4.10;;;3.13;;
10226;SDS011;15634;48.766;2.272;2022-08-19T12:43:38;2.75;;;2.20;;
10226;SDS011;15634;48.766;2.272;2022-08-19T12:46:06;5.45;;;2.33;;
10226;SDS011;15634;48.766;2.272;2022-08-19T12:48:34;3.58;;;2.13;;
10226;SDS011;15634;48.766;2.272;2022-08-19T12:51:05;3.30;;;1.88;;
10226;SDS011;15634;48.766;2.272;2022-08-19T12:53:32;2.40;;;1.73;;
10226;SDS011;15634;48.766;2.272;2022-08-19T12:55:58;4.38;;;1.95;;
10226;SDS011;15634;48.766;2.272;2022-08-19T12:58:25;2.83;;;2.03;;
10226;SDS011;15634;48.766;2.272;2022-08-19T13:00:53;3.15;;;1.90;;
10226;SDS011;15634;48.766;2.272;2022-08-19T13:03:20;2.90;;;2.03;;
10226;SDS011;15634;48.766;2.272;2022-08-19T13:05:50;4.20;;;2.28;;
10226;SDS011;15634;48.766;2.272;2022-08-19T13:08:16;4.70;;;2.35;;
10226;SDS011;15634;48.766;2.272;2022-08-19T13:10:43;3.13;;;1.88;;
10226;SDS011;15634;48.766;2.272;2022-08-19T13:13:09;3.20;;;2.00;;
10226;SDS011;15634;48.766;2.272;2022-08-19T13:15:37;3.70;;;2.20;;
10226;SDS011;15634;48.766;2.272;2022-08-19T13:18:06;7.68;;;4.32;;
10226;SDS011;15634;48.766;2.272;2022-08-19T13:20:34;18.90;;;9.18;;
10226;SDS011;15634;48.766;2.272;2022-08-19T13:23:03;14.75;;;7.18;;
10226;SDS011;15634;48.766;2.272;2022-08-19T13:25:30;29.33;;;15.25;;
10226;SDS011;15634;48.766;2.272;2022-08-19T13:27:56;19.60;;;10.43;;
10226;SDS011;15634;48.766;2.272;2022-08-19T13:30:23;13.93;;;7.50;;
10226;SDS011;15634;48.766;2.272;2022-08-19T13:33:07;7.50;;;4.20;;
10226;SDS011;15634;48.766;2.272;2022-08-19T13:35:40;5.38;;;2.72;;
10226;SDS011;15634;48.766;2.272;2022-08-19T13:38:09;6.18;;;3.17;;
10226;SDS011;15634;48.766;2.272;2022-08-19T13:40:36;5.93;;;3.45;;
10226;SDS011;15634;48.766;2.272;2022-08-19T13:43:03;9.82;;;4.25;;
10226;SDS011;15634;48.766;2.272;2022-08-19T13:45:30;6.95;;;3.35;;
10226;SDS011;15634;48.766;2.272;2022-08-19T13:47:59;7.25;;;3.40;;
10226;SDS011;15634;48.766;2.272;2022-08-19T13:50:31;6.22;;;2.80;;
10226;SDS011;15634;48.766;2.272;2022-08-19T13:52:59;6.10;;;3.00;;
10226;SDS011;15634;48.766;2.272;2022-08-19T13:55:27;4.75;;;2.30;;
10226;SDS011;15634;48.766;2.272;2022-08-19T13:57:55;4.38;;;2.53;;
10226;SDS011;15634;48.766;2.272;2022-08-19T14:00:23;4.43;;;2.30;;
10226;SDS011;15634;48.766;2.272;2022-08-19T14:02:51;2.67;;;2.10;;
10226;SDS011;15634;48.766;2.272;2022-08-19T14:05:19;5.63;;;2.63;;
10226;SDS011;15634;48.766;2.272;2022-08-19T14:07:46;5.28;;;2.78;;
10226;SDS011;15634;48.766;2.272;2022-08-19T14:10:14;2.95;;;1.92;;
10226;SDS011;15634;48.766;2.272;2022-08-19T14:12:42;6.10;;;2.40;;
10226;SDS011;15634;48.766;2.272;2022-08-19T14:15:10;4.30;;;2.42;;
10226;SDS011;15634;48.766;2.272;2022-08-19T14:17:37;4.03;;;2.20;;
10226;SDS011;15634;48.766;2.272;2022-08-19T14:20:05;3.92;;;2.33;;
10226;SDS011;15634;48.766;2.272;2022-08-19T14:22:34;4.68;;;1.60;;
10226;SDS011;15634;48.766;2.272;2022-08-19T14:25:01;4.75;;;2.35;;
10226;SDS011;15634;48.766;2.272;2022-08-19T14:27:29;2.88;;;2.05;;
10226;SDS011;15634;48.766;2.272;2022-08-19T14:29:57;2.67;;;2.10;;
10226;SDS011;15634;48.766;2.272;2022-08-19T14:32:24;5.45;;;2.25;;
10226;SDS011;15634;48.766;2.272;2022-08-19T14:34:51;3.00;;;2.28;;
10226;SDS011;15634;48.766;2.272;2022-08-19T14:37:18;6.90;;;2.65;;
10226;SDS011;15634;48.766;2.272;2022-08-19T14:39:45;4.13;;;2.22;;
10226;SDS011;15634;48.766;2.272;2022-08-19T14:42:12;4.93;;;2.45;;
10226;SDS011;15634;48.766;2.272;2022-08-19T14:44:39;2.65;;;1.80;;
10226;SDS011;15634;48.766;2.272;2022-08-19T14:47:07;4.20;;;2.15;;
10226;SDS011;15634;48.766;2.272;2022-08-19T14:49:34;3.00;;;1.80;;